createdAt,value
2022-07-26T00:00:58.646Z,8.00
2022-07-26T00:03:27.893Z,7.40
2022-07-26T00:05:55.823Z,9.53
2022-07-26T00:08:23.814Z,10.93
2022-07-26T00:10:52.407Z,8.40
2022-07-26T00:13:21.915Z,11.70
2022-07-26T00:15:50.633Z,8.80
2022-07-26T00:18:18.910Z,7.50
2022-07-26T00:20:48.942Z,8.40
2022-07-26T00:23:17.021Z,9.13
2022-07-26T00:25:44.970Z,11.30
2022-07-26T00:28:12.973Z,11.23
2022-07-26T00:30:40.979Z,10.67
2022-07-26T00:33:09.017Z,8.23
2022-07-26T00:35:37.148Z,8.87
2022-07-26T00:38:06.553Z,8.07
2022-07-26T00:40:35.925Z,8.17
2022-07-26T00:43:03.957Z,9.60
2022-07-26T00:45:32.975Z,9.37
2022-07-26T00:48:00.929Z,7.97
2022-07-26T00:50:28.862Z,8.10
2022-07-26T00:52:56.996Z,11.07
2022-07-26T00:55:26.324Z,8.73
2022-07-26T00:57:54.449Z,7.83
2022-07-26T01:00:27.796Z,7.87
2022-07-26T01:02:55.819Z,8.83
2022-07-26T01:05:24.350Z,9.60
2022-07-26T01:07:53.065Z,8.50
2022-07-26T01:10:21.924Z,10.77
2022-07-26T01:12:51.362Z,9.03
2022-07-26T01:15:19.422Z,8.20
2022-07-26T01:17:47.518Z,8.77
2022-07-26T01:20:15.983Z,8.77
2022-07-26T01:22:45.314Z,11.90
2022-07-26T01:25:13.374Z,8.17
2022-07-26T01:27:41.403Z,8.50
2022-07-26T01:30:13.102Z,8.83
2022-07-26T01:32:41.656Z,12.57
2022-07-26T01:35:10.737Z,8.63
2022-07-26T01:37:38.785Z,10.10
2022-07-26T01:40:11.327Z,11.23
2022-07-26T01:42:40.923Z,8.90
2022-07-26T01:45:09.996Z,6.63
2022-07-26T01:47:38.016Z,8.10
2022-07-26T01:50:08.558Z,8.93
2022-07-26T01:52:37.326Z,7.60
2022-07-26T01:55:05.896Z,9.80
2022-07-26T01:57:35.274Z,8.80
2022-07-26T02:00:05.227Z,8.23
2022-07-26T02:02:35.315Z,8.53
2022-07-26T02:05:03.822Z,8.17
2022-07-26T02:07:34.116Z,8.97
2022-07-26T02:10:02.105Z,8.57
2022-07-26T02:12:30.062Z,8.60
2022-07-26T02:15:00.586Z,9.43
2022-07-26T02:17:28.573Z,7.77
2022-07-26T02:19:56.677Z,9.53
2022-07-26T02:22:24.714Z,9.37
2022-07-26T02:24:52.586Z,8.10
2022-07-26T02:27:20.833Z,8.50
2022-07-26T02:29:48.733Z,11.30
2022-07-26T02:32:18.012Z,10.13
2022-07-26T02:34:45.905Z,7.70
2022-07-26T02:37:13.821Z,9.20
2022-07-26T02:39:41.831Z,8.60
2022-07-26T02:42:09.825Z,8.83
2022-07-26T02:44:37.792Z,8.93
2022-07-26T02:47:05.929Z,9.50
2022-07-26T02:49:35.528Z,8.20
2022-07-26T02:52:06.634Z,10.00
2022-07-26T02:54:34.555Z,12.53
2022-07-26T02:57:02.450Z,9.00
2022-07-26T02:59:30.402Z,10.83
2022-07-26T03:01:58.533Z,10.27
2022-07-26T03:04:26.614Z,8.50
2022-07-26T03:06:55.970Z,8.63
2022-07-26T03:09:24.039Z,11.07
2022-07-26T03:11:52.089Z,9.93
2022-07-26T03:14:20.042Z,8.10
2022-07-26T03:16:48.383Z,10.90
2022-07-26T03:19:16.359Z,9.03
2022-07-26T03:21:44.321Z,8.43
2022-07-26T03:24:13.604Z,10.00
2022-07-26T03:26:41.485Z,9.07
2022-07-26T03:29:09.427Z,13.87
2022-07-26T03:31:37.342Z,13.43
2022-07-26T03:34:05.718Z,9.40
2022-07-26T03:36:33.780Z,13.77
2022-07-26T03:39:01.746Z,12.80
2022-07-26T03:41:31.630Z,10.70
2022-07-26T03:43:59.569Z,7.77
2022-07-26T03:46:27.796Z,15.00
2022-07-26T03:48:56.066Z,9.73
2022-07-26T03:51:24.329Z,10.60
2022-07-26T03:53:52.358Z,8.20
2022-07-26T03:56:35.262Z,9.67
2022-07-26T03:59:06.388Z,8.40
2022-07-26T04:01:35.305Z,8.00
2022-07-26T04:04:03.461Z,14.53
2022-07-26T04:06:31.425Z,12.33
2022-07-26T04:08:59.330Z,11.60
2022-07-26T04:11:28.593Z,9.63
2022-07-26T04:13:57.305Z,20.80
2022-07-26T04:16:27.127Z,18.33
2022-07-26T04:18:55.509Z,11.10
2022-07-26T04:21:23.704Z,10.07
2022-07-26T04:23:52.147Z,11.03
2022-07-26T04:26:20.417Z,9.17
2022-07-26T04:28:48.894Z,10.90
2022-07-26T04:31:16.878Z,9.43
2022-07-26T04:33:46.238Z,9.03
2022-07-26T04:36:14.220Z,14.50
2022-07-26T04:38:42.756Z,12.43
2022-07-26T04:41:10.754Z,10.50
2022-07-26T04:43:38.677Z,7.43
2022-07-26T04:46:07.286Z,8.00
2022-07-26T04:48:35.532Z,11.53
2022-07-26T04:51:05.031Z,7.80
2022-07-26T04:53:33.068Z,8.87
2022-07-26T04:56:00.986Z,9.67
2022-07-26T04:58:28.995Z,9.20
2022-07-26T05:01:09.454Z,8.47
2022-07-26T05:03:38.166Z,7.27
2022-07-26T05:06:08.029Z,11.60
2022-07-26T05:08:36.106Z,13.33
2022-07-26T05:11:04.584Z,10.37
2022-07-26T05:13:32.934Z,26.60
2022-07-26T05:16:01.911Z,8.47
2022-07-26T05:18:45.973Z,8.43
2022-07-26T05:21:19.621Z,8.70
2022-07-26T05:23:47.646Z,10.20
2022-07-26T05:26:15.766Z,11.43
2022-07-26T05:28:43.662Z,11.27
2022-07-26T05:31:11.738Z,10.00
2022-07-26T05:33:39.794Z,8.83
2022-07-26T05:36:08.028Z,7.27
2022-07-26T05:38:37.626Z,9.17
2022-07-26T05:41:06.085Z,9.33
2022-07-26T05:43:40.924Z,11.83
2022-07-26T05:46:10.799Z,7.47
2022-07-26T05:48:39.026Z,11.23
2022-07-26T05:51:07.244Z,8.67
2022-07-26T05:53:35.246Z,8.90
2022-07-26T05:56:04.765Z,10.13
2022-07-26T05:58:32.877Z,9.47
2022-07-26T06:01:00.856Z,10.47
2022-07-26T06:03:30.078Z,9.80
2022-07-26T06:05:59.671Z,6.80
2022-07-26T06:08:27.977Z,10.40
2022-07-26T06:10:56.011Z,8.17
2022-07-26T06:13:25.515Z,9.27
2022-07-26T06:15:53.952Z,9.30
2022-07-26T06:18:22.011Z,8.90
2022-07-26T06:20:50.221Z,7.20
2022-07-26T06:23:18.209Z,8.70
2022-07-26T06:26:02.423Z,7.87
2022-07-26T06:28:32.656Z,14.27
2022-07-26T06:31:00.710Z,9.37
2022-07-26T06:33:28.665Z,10.67
2022-07-26T06:35:56.659Z,11.43
2022-07-26T06:38:24.728Z,9.70
2022-07-26T06:40:52.752Z,17.63
2022-07-26T06:43:20.784Z,15.90
2022-07-26T06:45:50.576Z,17.17
2022-07-26T06:48:18.849Z,14.10
2022-07-26T06:50:46.884Z,12.63
2022-07-26T06:53:14.925Z,11.00
2022-07-26T06:55:43.111Z,18.63
2022-07-26T06:58:11.187Z,13.53
2022-07-26T07:00:39.233Z,15.70
2022-07-26T07:03:08.629Z,21.43
2022-07-26T07:05:36.995Z,12.47
2022-07-26T07:08:07.437Z,11.40
2022-07-26T07:10:35.448Z,14.90
2022-07-26T07:13:04.263Z,11.33
2022-07-26T07:15:32.510Z,12.90
2022-07-26T07:18:00.712Z,15.70
2022-07-26T07:20:30.453Z,16.67
2022-07-26T07:22:58.651Z,16.80
2022-07-26T07:25:30.892Z,12.57
2022-07-26T07:27:59.373Z,15.47
2022-07-26T07:30:28.278Z,17.13
2022-07-26T07:32:57.043Z,13.53
2022-07-26T07:35:31.632Z,14.40
2022-07-26T07:38:02.070Z,33.10
2022-07-26T07:40:30.541Z,10.63
2022-07-26T07:42:59.369Z,18.73
2022-07-26T07:45:27.795Z,13.90
2022-07-26T07:47:56.106Z,8.17
2022-07-26T07:50:27.189Z,19.67
2022-07-26T07:52:59.133Z,11.70
2022-07-26T07:55:41.459Z,16.07
2022-07-26T07:58:12.416Z,11.60
2022-07-26T08:00:42.649Z,11.07
2022-07-26T08:03:10.763Z,6.73
2022-07-26T08:05:40.507Z,9.63
2022-07-26T08:08:09.197Z,6.40
2022-07-26T08:10:43.672Z,6.10
2022-07-26T08:13:21.409Z,7.07
2022-07-26T08:15:50.697Z,8.23
2022-07-26T08:18:19.667Z,7.80
2022-07-26T08:20:54.020Z,8.73
2022-07-26T08:23:22.649Z,7.73
2022-07-26T08:25:57.796Z,9.40
2022-07-26T08:28:46.894Z,8.80
2022-07-26T08:31:15.730Z,10.50
2022-07-26T08:33:46.294Z,9.17
2022-07-26T08:36:16.014Z,10.23
2022-07-26T08:38:44.325Z,7.50
2022-07-26T08:41:13.705Z,7.57
2022-07-26T08:43:43.747Z,8.80
2022-07-26T08:46:27.725Z,8.07
2022-07-26T08:48:57.014Z,9.90
2022-07-26T08:51:26.286Z,18.03
2022-07-26T08:54:02.159Z,13.17
2022-07-26T08:56:35.518Z,18.83
2022-07-26T08:59:07.982Z,11.43
2022-07-26T09:01:36.301Z,12.03
2022-07-26T09:04:31.143Z,15.37
2022-07-26T09:07:03.166Z,10.30
2022-07-26T09:09:32.587Z,11.27
2022-07-26T09:12:15.004Z,9.70
2022-07-26T09:14:42.993Z,10.27
2022-07-26T09:17:10.886Z,11.30
2022-07-26T09:19:38.834Z,14.63
2022-07-26T09:22:12.074Z,15.37
2022-07-26T09:24:42.376Z,13.33
2022-07-26T09:27:18.477Z,15.53
2022-07-26T09:29:48.718Z,19.13
2022-07-26T09:32:19.328Z,20.67
2022-07-26T09:34:53.158Z,23.67
2022-07-26T09:37:35.157Z,22.50
2022-07-26T09:40:06.225Z,25.03
2022-07-26T09:42:35.818Z,25.80
2022-07-26T09:45:15.896Z,27.50
2022-07-26T09:47:43.919Z,33.20
2022-07-26T09:50:14.250Z,31.97
2022-07-26T09:52:57.659Z,31.07
2022-07-26T09:55:26.197Z,34.37
2022-07-26T09:57:55.936Z,36.50
2022-07-26T10:00:25.785Z,38.47
2022-07-26T10:02:54.340Z,38.47
2022-07-26T10:05:22.680Z,33.77
2022-07-26T10:07:51.670Z,35.50
2022-07-26T10:10:24.390Z,41.63
2022-07-26T10:12:55.579Z,34.70
2022-07-26T10:15:38.469Z,32.93
2022-07-26T10:18:08.343Z,37.17
2022-07-26T10:20:42.217Z,24.80
2022-07-26T10:23:49.978Z,33.47
2022-07-26T10:26:45.428Z,39.33
2022-07-26T10:29:29.255Z,33.17
2022-07-26T10:32:17.542Z,32.60
2022-07-26T10:34:46.346Z,26.60
2022-07-26T10:37:27.596Z,23.10
2022-07-26T10:40:19.156Z,28.77
2022-07-26T10:42:47.104Z,28.00
2022-07-26T10:45:23.030Z,28.40
2022-07-26T10:48:22.737Z,33.23
2022-07-26T10:50:53.395Z,36.77
2022-07-26T10:53:23.433Z,38.27
2022-07-26T10:55:52.875Z,40.70
2022-07-26T10:58:21.670Z,42.40
2022-07-26T11:01:00.931Z,34.50
2022-07-26T11:03:38.945Z,37.27
2022-07-26T11:06:14.588Z,37.63
2022-07-26T11:08:47.783Z,39.57
2022-07-26T11:11:29.992Z,33.57
2022-07-26T11:14:07.020Z,31.80
2022-07-26T11:16:40.774Z,42.97
2022-07-26T11:19:17.369Z,23.13
2022-07-26T11:21:46.513Z,20.47
2022-07-26T11:24:14.946Z,23.30
2022-07-26T11:26:44.137Z,22.53
2022-07-26T11:29:17.696Z,19.53
2022-07-26T11:32:00.141Z,18.00
2022-07-26T11:34:35.627Z,18.17
2022-07-26T11:37:05.738Z,18.30
2022-07-26T11:39:36.454Z,20.87
2022-07-26T11:42:06.365Z,22.47
2022-07-26T11:44:34.664Z,22.70
2022-07-26T11:47:12.072Z,20.20
2022-07-26T11:52:31.147Z,19.07
2022-07-26T11:54:59.186Z,18.00
2022-07-26T11:57:30.078Z,17.83
2022-07-26T11:59:59.707Z,17.57
2022-07-26T12:02:30.106Z,26.57
2022-07-26T12:05:14.081Z,24.20
2022-07-26T12:07:54.889Z,25.07
2022-07-26T12:10:23.139Z,24.03
2022-07-26T12:12:51.389Z,27.90
2022-07-26T12:15:19.578Z,26.30
2022-07-26T12:18:01.772Z,26.83
2022-07-26T12:20:29.771Z,28.97
2022-07-26T12:23:04.936Z,31.20
2022-07-26T12:25:33.709Z,30.67
2022-07-26T12:28:01.731Z,31.20
2022-07-26T12:30:36.461Z,28.10
2022-07-26T12:33:05.960Z,30.00
2022-07-26T12:35:35.644Z,32.97
2022-07-26T12:38:04.615Z,29.07
2022-07-26T12:40:41.930Z,32.00
2022-07-26T12:43:10.066Z,32.10
2022-07-26T12:45:38.541Z,31.70
2022-07-26T12:48:11.837Z,28.47
2022-07-26T12:50:40.036Z,29.77
2022-07-26T12:53:12.559Z,32.83
2022-07-26T12:55:40.817Z,34.90
2022-07-26T12:58:09.154Z,35.33
2022-07-26T13:00:37.184Z,35.80
2022-07-26T13:03:05.348Z,35.47
2022-07-26T13:05:34.649Z,32.07
2022-07-26T13:08:02.554Z,38.57
2022-07-26T13:10:33.460Z,38.47
2022-07-26T13:13:02.609Z,41.50
2022-07-26T13:15:36.415Z,37.23
2022-07-26T13:18:08.155Z,37.27
2022-07-26T13:20:39.231Z,39.00
2022-07-26T13:23:09.772Z,33.80
2022-07-26T13:25:40.617Z,31.87
2022-07-26T13:28:09.970Z,35.00
2022-07-26T13:30:42.896Z,33.97
2022-07-26T13:33:11.689Z,30.93
2022-07-26T13:35:42.833Z,28.07
2022-07-26T13:38:11.119Z,33.60
2022-07-26T13:40:39.104Z,28.80
2022-07-26T13:43:07.111Z,28.00
2022-07-26T13:45:35.056Z,29.70
2022-07-26T13:48:03.031Z,30.83
2022-07-26T13:50:30.954Z,30.63
2022-07-26T13:53:00.302Z,26.53
2022-07-26T13:55:28.301Z,27.63
2022-07-26T13:57:57.877Z,24.83
2022-07-26T14:00:27.712Z,23.50
2022-07-26T14:02:58.033Z,23.23
2022-07-26T14:05:27.532Z,21.70
2022-07-26T14:07:56.182Z,16.07
2022-07-26T14:10:25.862Z,21.97
2022-07-26T14:12:54.381Z,14.83
2022-07-26T14:15:23.496Z,15.87
2022-07-26T14:17:52.228Z,12.93
2022-07-26T14:20:20.977Z,14.73
2022-07-26T14:22:53.057Z,10.63
2022-07-26T14:25:21.414Z,9.40
2022-07-26T14:27:51.189Z,8.90
2022-07-26T14:30:19.919Z,10.80
2022-07-26T14:32:48.248Z,6.20
2022-07-26T14:35:17.522Z,5.70
2022-07-26T14:37:46.298Z,6.93
2022-07-26T14:40:16.437Z,7.00
2022-07-26T14:42:45.039Z,5.53
2022-07-26T14:45:15.368Z,7.20
2022-07-26T14:47:43.837Z,7.87
2022-07-26T14:50:13.091Z,6.17
2022-07-26T14:52:42.252Z,5.80
2022-07-26T14:55:10.727Z,7.93
2022-07-26T14:57:40.275Z,5.60
2022-07-26T15:00:10.700Z,5.33
2022-07-26T15:02:41.577Z,4.90
2022-07-26T15:05:10.609Z,5.30
2022-07-26T15:07:39.875Z,5.40
2022-07-26T15:10:09.221Z,5.30
2022-07-26T15:12:37.976Z,5.17
2022-07-26T15:15:07.276Z,4.53
2022-07-26T15:17:35.509Z,5.10
2022-07-26T15:20:06.255Z,5.30
2022-07-26T15:22:34.746Z,5.00
2022-07-26T15:25:02.706Z,5.60
2022-07-26T15:27:30.652Z,5.60
2022-07-26T15:30:04.223Z,5.50
2022-07-26T15:32:35.169Z,5.20
2022-07-26T15:35:08.276Z,5.13
2022-07-26T15:37:44.677Z,4.53
2022-07-26T15:40:13.677Z,4.80
2022-07-26T15:42:44.260Z,5.97
2022-07-26T15:45:14.085Z,5.13
2022-07-26T15:48:05.734Z,4.77
2022-07-26T15:50:31.791Z,6.40
2022-07-26T15:52:59.771Z,6.33
2022-07-26T15:55:27.695Z,6.73
2022-07-26T15:57:55.689Z,4.93
2022-07-26T16:00:23.757Z,5.63
2022-07-26T16:02:52.221Z,5.93
2022-07-26T16:05:20.537Z,6.23
2022-07-26T16:07:49.865Z,5.90
2022-07-26T16:10:18.783Z,5.73
2022-07-26T16:12:46.858Z,6.27
2022-07-26T16:15:14.997Z,5.67
2022-07-26T16:17:42.919Z,6.07
2022-07-26T16:20:11.378Z,6.50
2022-07-26T16:22:41.006Z,6.50
2022-07-26T16:25:13.542Z,7.53
2022-07-26T16:27:43.051Z,4.97
2022-07-26T16:30:12.544Z,5.30
2022-07-26T16:32:40.585Z,5.37
2022-07-26T16:35:09.328Z,6.80
2022-07-26T16:37:37.352Z,7.47
2022-07-26T16:40:06.543Z,8.07
2022-07-26T16:42:35.937Z,8.40
2022-07-26T16:45:04.984Z,4.97
2022-07-26T16:47:32.913Z,5.73
2022-07-26T16:50:00.895Z,5.83
2022-07-26T16:52:28.950Z,5.77
2022-07-26T16:54:56.975Z,5.80
2022-07-26T16:57:24.851Z,6.03
2022-07-26T16:59:54.189Z,7.40
2022-07-26T17:02:22.253Z,5.33
2022-07-26T17:04:50.231Z,5.50
2022-07-26T17:07:26.235Z,8.80
2022-07-26T17:09:55.504Z,4.97
2022-07-26T17:12:24.026Z,5.63
2022-07-26T17:14:52.209Z,4.97
2022-07-26T17:17:21.597Z,5.20
2022-07-26T17:19:49.676Z,5.00
2022-07-26T17:22:18.382Z,6.27
2022-07-26T17:24:46.466Z,5.80
2022-07-26T17:27:14.912Z,5.07
2022-07-26T17:29:45.229Z,5.30
2022-07-26T17:32:13.205Z,5.27
2022-07-26T17:34:42.705Z,6.40
2022-07-26T17:37:12.250Z,6.67
2022-07-26T17:39:51.588Z,6.57
2022-07-26T17:42:21.055Z,4.90
2022-07-26T17:44:49.384Z,4.67
2022-07-26T17:47:18.142Z,5.80
2022-07-26T17:50:19.515Z,5.77
2022-07-26T17:52:49.115Z,5.77
2022-07-26T17:55:18.430Z,4.80
2022-07-26T17:57:47.602Z,4.50
2022-07-26T18:00:16.999Z,5.60
2022-07-26T18:02:44.922Z,4.93
2022-07-26T18:05:15.043Z,4.27
2022-07-26T18:07:43.104Z,5.97
2022-07-26T18:10:11.520Z,4.83
2022-07-26T18:12:39.474Z,4.60
2022-07-26T18:15:08.583Z,5.27
2022-07-26T18:17:37.284Z,6.70
2022-07-26T18:20:07.148Z,5.93
2022-07-26T18:22:36.493Z,4.50
2022-07-26T18:25:05.534Z,5.80
2022-07-26T18:27:34.059Z,6.47
2022-07-26T18:30:02.007Z,4.93
2022-07-26T18:32:29.928Z,10.53
2022-07-26T18:34:57.855Z,5.20
2022-07-26T18:37:25.813Z,5.50
2022-07-26T18:39:57.820Z,5.80
2022-07-26T18:42:26.338Z,6.20
2022-07-26T18:44:54.311Z,5.20
2022-07-26T18:47:22.289Z,5.63
2022-07-26T18:49:50.339Z,5.03
2022-07-26T18:52:28.770Z,7.53
2022-07-26T18:55:06.609Z,4.97
2022-07-26T18:57:34.885Z,5.70
2022-07-26T19:00:02.979Z,4.77
2022-07-26T19:02:31.012Z,7.07
2022-07-26T19:04:59.029Z,7.40
2022-07-26T19:07:27.051Z,5.67
2022-07-26T19:09:58.375Z,7.23
2022-07-26T19:12:29.155Z,5.70
2022-07-26T19:14:59.773Z,5.47
2022-07-26T19:17:30.308Z,5.00
2022-07-26T19:20:00.885Z,5.03
2022-07-26T19:22:30.356Z,5.30
2022-07-26T19:24:58.514Z,9.80
2022-07-26T19:27:28.737Z,5.30
2022-07-26T19:29:57.431Z,4.87
2022-07-26T19:32:29.051Z,6.83
2022-07-26T19:34:59.743Z,5.10
2022-07-26T19:37:27.645Z,5.03
2022-07-26T19:40:00.291Z,4.60
2022-07-26T19:42:31.755Z,6.13
2022-07-26T19:44:59.984Z,6.27
2022-07-26T19:47:29.659Z,6.43
2022-07-26T19:49:58.683Z,4.60
2022-07-26T19:52:26.645Z,5.13
2022-07-26T19:54:54.637Z,4.97
2022-07-26T19:57:22.790Z,4.70
2022-07-26T19:59:52.218Z,16.40
2022-07-26T20:02:20.281Z,5.83
2022-07-26T20:04:50.779Z,6.87
2022-07-26T20:07:19.639Z,4.60
2022-07-26T20:09:48.034Z,4.97
2022-07-26T20:12:17.467Z,5.70
2022-07-26T20:14:45.741Z,5.07
2022-07-26T20:17:15.212Z,6.90
2022-07-26T20:19:43.364Z,5.50
2022-07-26T20:22:11.809Z,7.23
2022-07-26T20:24:39.780Z,8.37
2022-07-26T20:27:08.248Z,6.57
2022-07-26T20:29:36.281Z,6.00
2022-07-26T20:32:04.307Z,6.53
2022-07-26T20:34:33.805Z,8.33
2022-07-26T20:37:01.694Z,8.53
2022-07-26T20:39:29.837Z,7.80
2022-07-26T20:41:58.213Z,5.73
2022-07-26T20:44:28.404Z,7.80
2022-07-26T20:46:56.831Z,5.97
2022-07-26T20:49:24.999Z,5.43
2022-07-26T20:51:54.379Z,6.67
2022-07-26T20:54:22.318Z,15.17
2022-07-26T20:56:50.616Z,13.73
2022-07-26T20:59:18.545Z,18.67
2022-07-26T21:01:46.772Z,16.77
2022-07-26T21:04:14.838Z,18.90
2022-07-26T21:06:42.887Z,15.47
2022-07-26T21:09:12.785Z,15.17
2022-07-26T21:11:40.918Z,12.47
2022-07-26T21:14:08.921Z,8.97
2022-07-26T21:16:37.046Z,9.67
2022-07-26T21:19:05.780Z,9.47
2022-07-26T21:21:36.966Z,10.87
2022-07-26T21:24:06.319Z,8.80
2022-07-26T21:26:35.843Z,6.90
2022-07-26T21:29:04.623Z,5.87
2022-07-26T21:31:32.690Z,12.17
2022-07-26T21:34:00.653Z,9.00
2022-07-26T21:36:28.591Z,7.10
2022-07-26T21:38:56.594Z,8.37
2022-07-26T21:41:24.527Z,10.90
2022-07-26T21:43:53.788Z,6.00
2022-07-26T21:46:21.906Z,8.27
2022-07-26T21:48:49.943Z,14.53
2022-07-26T21:51:18.369Z,8.80
2022-07-26T21:53:46.394Z,12.20
2022-07-26T21:56:14.629Z,15.00
2022-07-26T21:58:42.534Z,17.50
2022-07-26T22:01:12.718Z,15.33
2022-07-26T22:03:42.567Z,11.20
2022-07-26T22:06:11.293Z,9.50
2022-07-26T22:08:39.358Z,9.00
2022-07-26T22:11:07.415Z,7.27
2022-07-26T22:13:35.617Z,7.13
2022-07-26T22:16:03.727Z,11.03
2022-07-26T22:18:33.426Z,5.70
2022-07-26T22:21:01.576Z,10.73
2022-07-26T22:23:30.914Z,6.17
2022-07-26T22:25:59.551Z,6.13
2022-07-26T22:28:27.553Z,6.67
2022-07-26T22:30:55.620Z,5.20
2022-07-26T22:33:24.307Z,7.17
2022-07-26T22:35:53.865Z,5.47
2022-07-26T22:38:21.855Z,5.90
2022-07-26T22:40:49.806Z,6.13
2022-07-26T22:43:17.890Z,5.93
2022-07-26T22:45:45.860Z,6.40
2022-07-26T22:48:13.920Z,6.63
2022-07-26T22:50:41.873Z,6.90
2022-07-26T22:53:11.228Z,5.97
2022-07-26T22:55:39.157Z,6.60
2022-07-26T22:58:07.069Z,5.33
2022-07-26T23:00:35.208Z,5.33
2022-07-26T23:03:03.362Z,7.17
2022-07-26T23:05:45.812Z,6.77
2022-07-26T23:11:04.730Z,9.57
2022-07-26T23:13:32.677Z,9.70
2022-07-26T23:16:01.660Z,9.83
2022-07-26T23:18:31.055Z,6.73
2022-07-26T23:20:59.029Z,8.57
2022-07-26T23:23:29.602Z,7.60
2022-07-26T23:25:59.203Z,7.37
2022-07-26T23:28:35.867Z,5.83
2022-07-26T23:31:10.749Z,6.73
2022-07-26T23:33:51.473Z,8.73
2022-07-26T23:36:26.014Z,7.20
2022-07-26T23:38:56.492Z,7.40
2022-07-26T23:41:25.090Z,6.33
2022-07-26T23:43:54.156Z,7.77
2022-07-26T23:46:22.636Z,5.93
2022-07-26T23:48:51.576Z,6.33
2022-07-26T23:51:20.437Z,6.87
2022-07-26T23:53:48.917Z,7.67
2022-07-26T23:56:18.918Z,6.53
2022-07-26T23:58:46.951Z,5.20
